sensor_id;sensor_type;location;lat;lon;timestamp;P1;durP1;ratioP1;P2;durP2;ratioP2
5343;SDS011;2694;48.950;8.970;2023-02-07T00:00:49;8.40;;;5.00;;
5343;SDS011;2694;48.950;8.970;2023-02-07T00:03:15;8.02;;;5.30;;
5343;SDS011;2694;48.950;8.970;2023-02-07T00:05:42;8.70;;;5.65;;
5343;SDS011;2694;48.950;8.970;2023-02-07T00:08:11;6.93;;;4.40;;
5343;SDS011;2694;48.950;8.970;2023-02-07T00:10:39;8.18;;;5.03;;
5343;SDS011;2694;48.950;8.970;2023-02-07T00:13:06;8.20;;;4.90;;
5343;SDS011;2694;48.950;8.970;2023-02-07T00:15:32;9.10;;;4.80;;
5343;SDS011;2694;48.950;8.970;2023-02-07T00:17:59;7.50;;;4.45;;
5343;SDS011;2694;48.950;8.970;2023-02-07T00:20:26;7.57;;;4.63;;
5343;SDS011;2694;48.950;8.970;2023-02-07T00:22:53;7.95;;;4.38;;
5343;SDS011;2694;48.950;8.970;2023-02-07T00:25:21;6.35;;;4.32;;
5343;SDS011;2694;48.950;8.970;2023-02-07T00:27:48;7.27;;;4.40;;
5343;SDS011;2694;48.950;8.970;2023-02-07T00:30:15;9.23;;;4.03;;
5343;SDS011;2694;48.950;8.970;2023-02-07T00:32:42;12.27;;;5.13;;
5343;SDS011;2694;48.950;8.970;2023-02-07T00:35:09;6.28;;;3.78;;
5343;SDS011;2694;48.950;8.970;2023-02-07T00:37:36;7.40;;;4.30;;
5343;SDS011;2694;48.950;8.970;2023-02-07T00:40:03;7.73;;;4.00;;
5343;SDS011;2694;48.950;8.970;2023-02-07T00:42:32;7.45;;;4.43;;
5343;SDS011;2694;48.950;8.970;2023-02-07T00:44:59;8.95;;;4.93;;
5343;SDS011;2694;48.950;8.970;2023-02-07T00:47:26;9.32;;;5.00;;
5343;SDS011;2694;48.950;8.970;2023-02-07T00:49:53;9.30;;;4.70;;
5343;SDS011;2694;48.950;8.970;2023-02-07T00:52:19;9.32;;;4.88;;
5343;SDS011;2694;48.950;8.970;2023-02-07T00:54:46;11.20;;;5.10;;
5343;SDS011;2694;48.950;8.970;2023-02-07T00:57:13;9.80;;;4.80;;
5343;SDS011;2694;48.950;8.970;2023-02-07T00:59:41;9.73;;;5.53;;
5343;SDS011;2694;48.950;8.970;2023-02-07T01:02:08;10.63;;;5.90;;
5343;SDS011;2694;48.950;8.970;2023-02-07T01:04:35;9.33;;;5.43;;
5343;SDS011;2694;48.950;8.970;2023-02-07T01:07:02;7.45;;;4.85;;
5343;SDS011;2694;48.950;8.970;2023-02-07T01:09:29;9.88;;;5.10;;
5343;SDS011;2694;48.950;8.970;2023-02-07T01:11:56;7.93;;;4.85;;
5343;SDS011;2694;48.950;8.970;2023-02-07T01:14:23;9.93;;;5.75;;
5343;SDS011;2694;48.950;8.970;2023-02-07T01:16:51;9.77;;;5.45;;
5343;SDS011;2694;48.950;8.970;2023-02-07T01:19:18;9.35;;;5.90;;
5343;SDS011;2694;48.950;8.970;2023-02-07T01:21:45;9.75;;;5.70;;
5343;SDS011;2694;48.950;8.970;2023-02-07T01:24:12;10.37;;;6.50;;
5343;SDS011;2694;48.950;8.970;2023-02-07T01:26:38;11.23;;;5.63;;
5343;SDS011;2694;48.950;8.970;2023-02-07T01:29:06;11.98;;;6.25;;
5343;SDS011;2694;48.950;8.970;2023-02-07T01:31:33;10.80;;;6.60;;
5343;SDS011;2694;48.950;8.970;2023-02-07T01:34:02;10.30;;;6.15;;
5343;SDS011;2694;48.950;8.970;2023-02-07T01:36:28;11.50;;;6.80;;
5343;SDS011;2694;48.950;8.970;2023-02-07T01:38:56;12.50;;;6.63;;
5343;SDS011;2694;48.950;8.970;2023-02-07T01:41:23;10.98;;;6.05;;
5343;SDS011;2694;48.950;8.970;2023-02-07T01:43:52;13.83;;;7.40;;
5343;SDS011;2694;48.950;8.970;2023-02-07T01:46:26;14.82;;;6.55;;
5343;SDS011;2694;48.950;8.970;2023-02-07T01:48:55;12.93;;;7.50;;
5343;SDS011;2694;48.950;8.970;2023-02-07T01:51:26;13.52;;;7.88;;
5343;SDS011;2694;48.950;8.970;2023-02-07T01:53:56;13.85;;;7.97;;
5343;SDS011;2694;48.950;8.970;2023-02-07T01:56:26;14.57;;;7.50;;
5343;SDS011;2694;48.950;8.970;2023-02-07T01:58:53;14.68;;;8.18;;
5343;SDS011;2694;48.950;8.970;2023-02-07T02:01:21;13.38;;;7.82;;
5343;SDS011;2694;48.950;8.970;2023-02-07T02:03:50;11.85;;;7.32;;
5343;SDS011;2694;48.950;8.970;2023-02-07T02:06:21;13.90;;;8.00;;
5343;SDS011;2694;48.950;8.970;2023-02-07T02:08:52;15.53;;;8.50;;
5343;SDS011;2694;48.950;8.970;2023-02-07T02:11:35;16.40;;;7.38;;
5343;SDS011;2694;48.950;8.970;2023-02-07T02:14:25;13.68;;;7.05;;
5343;SDS011;2694;48.950;8.970;2023-02-07T02:17:20;11.00;;;6.87;;
5343;SDS011;2694;48.950;8.970;2023-02-07T02:25:50;14.40;;;7.90;;
5343;SDS011;2694;48.950;8.970;2023-02-07T02:32:09;15.23;;;7.50;;
5343;SDS011;2694;48.950;8.970;2023-02-07T02:34:59;16.80;;;8.07;;
5343;SDS011;2694;48.950;8.970;2023-02-07T02:37:36;15.82;;;8.20;;
5343;SDS011;2694;48.950;8.970;2023-02-07T02:40:10;13.98;;;8.23;;
5343;SDS011;2694;48.950;8.970;2023-02-07T02:42:44;13.67;;;7.70;;
5343;SDS011;2694;48.950;8.970;2023-02-07T02:45:16;16.58;;;7.90;;
5343;SDS011;2694;48.950;8.970;2023-02-07T02:47:48;16.30;;;8.23;;
5343;SDS011;2694;48.950;8.970;2023-02-07T02:50:21;15.77;;;8.45;;
5343;SDS011;2694;48.950;8.970;2023-02-07T02:52:50;16.98;;;8.00;;
5343;SDS011;2694;48.950;8.970;2023-02-07T02:55:17;15.40;;;8.93;;
5343;SDS011;2694;48.950;8.970;2023-02-07T02:57:57;17.87;;;9.00;;
5343;SDS011;2694;48.950;8.970;2023-02-07T03:00:40;14.57;;;9.03;;
5343;SDS011;2694;48.950;8.970;2023-02-07T03:03:23;16.15;;;9.43;;
5343;SDS011;2694;48.950;8.970;2023-02-07T03:06:17;16.23;;;8.38;;
5343;SDS011;2694;48.950;8.970;2023-02-07T03:08:53;13.02;;;7.90;;
5343;SDS011;2694;48.950;8.970;2023-02-07T03:11:25;15.10;;;8.60;;
5343;SDS011;2694;48.950;8.970;2023-02-07T03:13:58;15.98;;;9.38;;
5343;SDS011;2694;48.950;8.970;2023-02-07T03:16:29;17.75;;;8.95;;
5343;SDS011;2694;48.950;8.970;2023-02-07T03:19:00;16.13;;;9.50;;
5343;SDS011;2694;48.950;8.970;2023-02-07T03:21:35;16.15;;;9.10;;
5343;SDS011;2694;48.950;8.970;2023-02-07T03:24:07;15.57;;;9.00;;
5343;SDS011;2694;48.950;8.970;2023-02-07T03:26:37;16.33;;;9.73;;
5343;SDS011;2694;48.950;8.970;2023-02-07T03:29:05;17.35;;;9.50;;
5343;SDS011;2694;48.950;8.970;2023-02-07T03:31:34;17.58;;;9.52;;
5343;SDS011;2694;48.950;8.970;2023-02-07T03:34:06;20.42;;;10.57;;
5343;SDS011;2694;48.950;8.970;2023-02-07T03:36:38;15.00;;;9.00;;
5343;SDS011;2694;48.950;8.970;2023-02-07T03:39:08;18.05;;;9.90;;
5343;SDS011;2694;48.950;8.970;2023-02-07T03:41:37;19.35;;;10.20;;
5343;SDS011;2694;48.950;8.970;2023-02-07T03:44:07;20.60;;;10.73;;
5343;SDS011;2694;48.950;8.970;2023-02-07T03:46:37;18.65;;;10.15;;
5343;SDS011;2694;48.950;8.970;2023-02-07T03:49:05;17.15;;;9.48;;
5343;SDS011;2694;48.950;8.970;2023-02-07T03:51:32;20.67;;;10.47;;
5343;SDS011;2694;48.950;8.970;2023-02-07T03:54:01;22.02;;;11.07;;
5343;SDS011;2694;48.950;8.970;2023-02-07T03:56:28;16.88;;;10.23;;
5343;SDS011;2694;48.950;8.970;2023-02-07T03:58:55;19.17;;;10.90;;
5343;SDS011;2694;48.950;8.970;2023-02-07T04:01:21;19.90;;;11.07;;
5343;SDS011;2694;48.950;8.970;2023-02-07T04:03:48;19.63;;;11.07;;
5343;SDS011;2694;48.950;8.970;2023-02-07T04:06:15;22.40;;;12.00;;
5343;SDS011;2694;48.950;8.970;2023-02-07T04:08:42;18.88;;;10.80;;
5343;SDS011;2694;48.950;8.970;2023-02-07T04:11:10;17.63;;;10.88;;
5343;SDS011;2694;48.950;8.970;2023-02-07T04:13:37;21.23;;;11.25;;
5343;SDS011;2694;48.950;8.970;2023-02-07T04:16:04;20.85;;;11.60;;
5343;SDS011;2694;48.950;8.970;2023-02-07T04:18:32;19.40;;;10.90;;
5343;SDS011;2694;48.950;8.970;2023-02-07T04:20:59;19.63;;;10.63;;
5343;SDS011;2694;48.950;8.970;2023-02-07T04:23:27;21.33;;;10.90;;
5343;SDS011;2694;48.950;8.970;2023-02-07T04:25:54;18.15;;;10.93;;
5343;SDS011;2694;48.950;8.970;2023-02-07T04:28:22;19.83;;;11.77;;
5343;SDS011;2694;48.950;8.970;2023-02-07T04:30:50;18.70;;;9.68;;
5343;SDS011;2694;48.950;8.970;2023-02-07T04:33:17;18.33;;;10.32;;
5343;SDS011;2694;48.950;8.970;2023-02-07T04:35:45;17.77;;;11.00;;
5343;SDS011;2694;48.950;8.970;2023-02-07T04:38:12;18.90;;;10.98;;
5343;SDS011;2694;48.950;8.970;2023-02-07T04:40:39;26.25;;;12.02;;
5343;SDS011;2694;48.950;8.970;2023-02-07T04:43:06;21.33;;;12.00;;
5343;SDS011;2694;48.950;8.970;2023-02-07T04:45:34;18.25;;;11.13;;
5343;SDS011;2694;48.950;8.970;2023-02-07T04:48:01;21.50;;;12.90;;
5343;SDS011;2694;48.950;8.970;2023-02-07T04:50:28;21.92;;;11.50;;
5343;SDS011;2694;48.950;8.970;2023-02-07T04:52:55;25.33;;;12.80;;
5343;SDS011;2694;48.950;8.970;2023-02-07T04:55:22;28.30;;;14.53;;
5343;SDS011;2694;48.950;8.970;2023-02-07T04:57:49;28.60;;;14.40;;
5343;SDS011;2694;48.950;8.970;2023-02-07T05:00:16;22.40;;;11.95;;
5343;SDS011;2694;48.950;8.970;2023-02-07T05:02:44;20.70;;;11.85;;
5343;SDS011;2694;48.950;8.970;2023-02-07T05:05:11;19.83;;;10.98;;
5343;SDS011;2694;48.950;8.970;2023-02-07T05:07:38;20.27;;;11.18;;
5343;SDS011;2694;48.950;8.970;2023-02-07T05:10:05;17.70;;;11.43;;
5343;SDS011;2694;48.950;8.970;2023-02-07T05:12:32;20.25;;;11.68;;
5343;SDS011;2694;48.950;8.970;2023-02-07T05:14:59;18.65;;;10.07;;
5343;SDS011;2694;48.950;8.970;2023-02-07T05:17:26;18.00;;;10.85;;
5343;SDS011;2694;48.950;8.970;2023-02-07T05:19:56;20.95;;;10.80;;
5343;SDS011;2694;48.950;8.970;2023-02-07T05:22:22;22.20;;;10.60;;
5343;SDS011;2694;48.950;8.970;2023-02-07T05:24:49;19.17;;;10.18;;
5343;SDS011;2694;48.950;8.970;2023-02-07T05:27:16;17.95;;;9.93;;
5343;SDS011;2694;48.950;8.970;2023-02-07T05:29:43;18.92;;;10.30;;
5343;SDS011;2694;48.950;8.970;2023-02-07T05:32:10;19.43;;;10.70;;
5343;SDS011;2694;48.950;8.970;2023-02-07T05:34:57;18.67;;;10.48;;
5343;SDS011;2694;48.950;8.970;2023-02-07T05:37:24;18.33;;;10.00;;
5343;SDS011;2694;48.950;8.970;2023-02-07T05:39:51;19.02;;;10.70;;
5343;SDS011;2694;48.950;8.970;2023-02-07T05:42:18;18.90;;;10.47;;
5343;SDS011;2694;48.950;8.970;2023-02-07T05:44:45;18.02;;;10.55;;
5343;SDS011;2694;48.950;8.970;2023-02-07T05:47:12;19.27;;;9.82;;
5343;SDS011;2694;48.950;8.970;2023-02-07T05:49:39;18.13;;;10.20;;
5343;SDS011;2694;48.950;8.970;2023-02-07T05:52:08;20.77;;;10.57;;
5343;SDS011;2694;48.950;8.970;2023-02-07T05:54:35;19.92;;;10.00;;
5343;SDS011;2694;48.950;8.970;2023-02-07T05:57:02;22.30;;;11.77;;
5343;SDS011;2694;48.950;8.970;2023-02-07T05:59:29;18.27;;;10.38;;
5343;SDS011;2694;48.950;8.970;2023-02-07T06:01:56;20.55;;;11.00;;
5343;SDS011;2694;48.950;8.970;2023-02-07T06:04:23;19.52;;;9.88;;
5343;SDS011;2694;48.950;8.970;2023-02-07T06:06:49;21.15;;;10.40;;
5343;SDS011;2694;48.950;8.970;2023-02-07T06:09:18;19.90;;;10.77;;
5343;SDS011;2694;48.950;8.970;2023-02-07T06:11:45;21.77;;;10.93;;
5343;SDS011;2694;48.950;8.970;2023-02-07T06:14:12;17.02;;;9.90;;
5343;SDS011;2694;48.950;8.970;2023-02-07T06:16:39;17.73;;;10.00;;
5343;SDS011;2694;48.950;8.970;2023-02-07T06:19:06;17.60;;;9.68;;
5343;SDS011;2694;48.950;8.970;2023-02-07T06:21:33;16.10;;;10.15;;
5343;SDS011;2694;48.950;8.970;2023-02-07T06:24:00;18.95;;;9.60;;
5343;SDS011;2694;48.950;8.970;2023-02-07T06:26:28;16.70;;;9.32;;
5343;SDS011;2694;48.950;8.970;2023-02-07T06:28:55;21.80;;;10.30;;
5343;SDS011;2694;48.950;8.970;2023-02-07T06:31:22;21.38;;;10.80;;
5343;SDS011;2694;48.950;8.970;2023-02-07T06:33:49;19.10;;;11.13;;
5343;SDS011;2694;48.950;8.970;2023-02-07T06:36:16;20.88;;;11.35;;
5343;SDS011;2694;48.950;8.970;2023-02-07T06:38:43;18.20;;;10.18;;
5343;SDS011;2694;48.950;8.970;2023-02-07T06:41:10;20.98;;;10.57;;
5343;SDS011;2694;48.950;8.970;2023-02-07T06:43:38;21.25;;;11.48;;
5343;SDS011;2694;48.950;8.970;2023-02-07T06:46:05;23.50;;;10.48;;
5343;SDS011;2694;48.950;8.970;2023-02-07T06:48:32;22.42;;;10.60;;
5343;SDS011;2694;48.950;8.970;2023-02-07T06:50:59;20.10;;;11.82;;
5343;SDS011;2694;48.950;8.970;2023-02-07T06:53:26;19.58;;;10.77;;
5343;SDS011;2694;48.950;8.970;2023-02-07T06:55:53;21.60;;;11.50;;
5343;SDS011;2694;48.950;8.970;2023-02-07T06:58:20;21.42;;;11.07;;
5343;SDS011;2694;48.950;8.970;2023-02-07T07:00:49;22.97;;;11.17;;
5343;SDS011;2694;48.950;8.970;2023-02-07T07:03:16;18.10;;;10.47;;
5343;SDS011;2694;48.950;8.970;2023-02-07T07:05:43;24.77;;;11.70;;
5343;SDS011;2694;48.950;8.970;2023-02-07T07:08:10;19.57;;;10.70;;
5343;SDS011;2694;48.950;8.970;2023-02-07T07:10:39;20.05;;;11.30;;
5343;SDS011;2694;48.950;8.970;2023-02-07T07:13:06;22.13;;;11.80;;
5343;SDS011;2694;48.950;8.970;2023-02-07T07:15:33;20.50;;;10.90;;
5343;SDS011;2694;48.950;8.970;2023-02-07T07:18:01;22.73;;;12.20;;
5343;SDS011;2694;48.950;8.970;2023-02-07T07:20:28;15.80;;;9.43;;
5343;SDS011;2694;48.950;8.970;2023-02-07T07:22:55;19.70;;;10.20;;
5343;SDS011;2694;48.950;8.970;2023-02-07T07:25:22;18.50;;;10.23;;
5343;SDS011;2694;48.950;8.970;2023-02-07T07:27:48;17.85;;;10.45;;
5343;SDS011;2694;48.950;8.970;2023-02-07T07:30:17;17.70;;;9.20;;
5343;SDS011;2694;48.950;8.970;2023-02-07T07:32:44;17.00;;;9.55;;
5343;SDS011;2694;48.950;8.970;2023-02-07T07:35:12;17.02;;;10.13;;
5343;SDS011;2694;48.950;8.970;2023-02-07T07:37:39;17.20;;;9.88;;
5343;SDS011;2694;48.950;8.970;2023-02-07T07:40:07;18.27;;;10.00;;
5343;SDS011;2694;48.950;8.970;2023-02-07T07:42:34;19.77;;;9.48;;
5343;SDS011;2694;48.950;8.970;2023-02-07T07:45:02;17.13;;;9.70;;
5343;SDS011;2694;48.950;8.970;2023-02-07T07:47:29;17.98;;;10.18;;
5343;SDS011;2694;48.950;8.970;2023-02-07T07:49:56;23.25;;;11.30;;
5343;SDS011;2694;48.950;8.970;2023-02-07T07:52:24;22.55;;;10.07;;
5343;SDS011;2694;48.950;8.970;2023-02-07T07:54:51;18.50;;;9.80;;
5343;SDS011;2694;48.950;8.970;2023-02-07T07:57:18;15.95;;;9.45;;
5343;SDS011;2694;48.950;8.970;2023-02-07T07:59:45;17.00;;;8.70;;
5343;SDS011;2694;48.950;8.970;2023-02-07T08:02:12;13.75;;;8.30;;
5343;SDS011;2694;48.950;8.970;2023-02-07T08:04:39;16.48;;;8.15;;
5343;SDS011;2694;48.950;8.970;2023-02-07T08:07:06;18.67;;;10.00;;
5343;SDS011;2694;48.950;8.970;2023-02-07T08:09:34;18.83;;;8.88;;
5343;SDS011;2694;48.950;8.970;2023-02-07T08:12:01;14.82;;;9.40;;
5343;SDS011;2694;48.950;8.970;2023-02-07T08:14:28;13.13;;;7.60;;
5343;SDS011;2694;48.950;8.970;2023-02-07T08:16:55;13.77;;;7.78;;
5343;SDS011;2694;48.950;8.970;2023-02-07T08:19:22;14.13;;;8.00;;
5343;SDS011;2694;48.950;8.970;2023-02-07T08:21:49;13.18;;;7.30;;
5343;SDS011;2694;48.950;8.970;2023-02-07T08:24:16;16.23;;;7.53;;
5343;SDS011;2694;48.950;8.970;2023-02-07T08:26:44;13.05;;;7.30;;
5343;SDS011;2694;48.950;8.970;2023-02-07T08:29:11;12.63;;;7.05;;
5343;SDS011;2694;48.950;8.970;2023-02-07T08:31:38;10.02;;;6.38;;
5343;SDS011;2694;48.950;8.970;2023-02-07T08:34:05;14.40;;;6.88;;
5343;SDS011;2694;48.950;8.970;2023-02-07T08:36:32;13.63;;;7.55;;
5343;SDS011;2694;48.950;8.970;2023-02-07T08:38:58;12.48;;;6.82;;
5343;SDS011;2694;48.950;8.970;2023-02-07T08:41:25;13.48;;;6.00;;
5343;SDS011;2694;48.950;8.970;2023-02-07T08:43:54;11.90;;;6.22;;
5343;SDS011;2694;48.950;8.970;2023-02-07T08:46:20;11.95;;;6.95;;
5343;SDS011;2694;48.950;8.970;2023-02-07T08:48:47;14.43;;;6.80;;
5343;SDS011;2694;48.950;8.970;2023-02-07T08:51:14;14.05;;;7.13;;
5343;SDS011;2694;48.950;8.970;2023-02-07T08:53:41;16.30;;;8.45;;
5343;SDS011;2694;48.950;8.970;2023-02-07T08:56:08;13.65;;;6.90;;
5343;SDS011;2694;48.950;8.970;2023-02-07T08:58:35;11.93;;;7.10;;
5343;SDS011;2694;48.950;8.970;2023-02-07T09:01:03;11.38;;;7.47;;
5343;SDS011;2694;48.950;8.970;2023-02-07T09:03:34;17.63;;;8.00;;
5343;SDS011;2694;48.950;8.970;2023-02-07T09:06:01;16.70;;;8.40;;
5343;SDS011;2694;48.950;8.970;2023-02-07T09:08:28;13.40;;;8.30;;
5343;SDS011;2694;48.950;8.970;2023-02-07T09:10:55;16.50;;;8.15;;
5343;SDS011;2694;48.950;8.970;2023-02-07T09:13:22;12.73;;;7.30;;
5343;SDS011;2694;48.950;8.970;2023-02-07T09:15:52;17.33;;;8.63;;
5343;SDS011;2694;48.950;8.970;2023-02-07T09:18:22;17.67;;;8.13;;
5343;SDS011;2694;48.950;8.970;2023-02-07T09:20:49;12.75;;;7.82;;
5343;SDS011;2694;48.950;8.970;2023-02-07T09:23:16;12.75;;;7.85;;
5343;SDS011;2694;48.950;8.970;2023-02-07T09:25:46;16.10;;;7.55;;
5343;SDS011;2694;48.950;8.970;2023-02-07T09:28:15;12.90;;;7.40;;
5343;SDS011;2694;48.950;8.970;2023-02-07T09:30:42;12.50;;;6.97;;
5343;SDS011;2694;48.950;8.970;2023-02-07T09:33:11;16.23;;;6.75;;
5343;SDS011;2694;48.950;8.970;2023-02-07T09:35:41;14.93;;;7.23;;
5343;SDS011;2694;48.950;8.970;2023-02-07T09:38:11;11.45;;;7.05;;
5343;SDS011;2694;48.950;8.970;2023-02-07T09:40:39;10.57;;;6.55;;
5343;SDS011;2694;48.950;8.970;2023-02-07T09:43:10;12.73;;;6.50;;
5343;SDS011;2694;48.950;8.970;2023-02-07T09:45:47;15.15;;;7.80;;
5343;SDS011;2694;48.950;8.970;2023-02-07T09:48:20;12.02;;;6.85;;
5343;SDS011;2694;48.950;8.970;2023-02-07T09:50:53;13.30;;;7.27;;
5343;SDS011;2694;48.950;8.970;2023-02-07T09:53:23;14.95;;;7.72;;
5343;SDS011;2694;48.950;8.970;2023-02-07T09:55:54;11.98;;;7.00;;
5343;SDS011;2694;48.950;8.970;2023-02-07T09:58:26;12.18;;;7.05;;
5343;SDS011;2694;48.950;8.970;2023-02-07T10:01:02;13.80;;;7.13;;
5343;SDS011;2694;48.950;8.970;2023-02-07T10:03:33;13.88;;;7.22;;
5343;SDS011;2694;48.950;8.970;2023-02-07T10:06:05;14.57;;;7.30;;
5343;SDS011;2694;48.950;8.970;2023-02-07T10:08:38;14.70;;;7.40;;
5343;SDS011;2694;48.950;8.970;2023-02-07T10:11:08;19.90;;;8.05;;
5343;SDS011;2694;48.950;8.970;2023-02-07T10:13:47;13.23;;;7.68;;
5343;SDS011;2694;48.950;8.970;2023-02-07T10:16:27;10.13;;;7.22;;
5343;SDS011;2694;48.950;8.970;2023-02-07T10:19:09;14.77;;;8.25;;
5343;SDS011;2694;48.950;8.970;2023-02-07T10:21:49;13.70;;;7.53;;
5343;SDS011;2694;48.950;8.970;2023-02-07T10:24:27;13.52;;;7.93;;
5343;SDS011;2694;48.950;8.970;2023-02-07T10:27:08;13.53;;;7.70;;
5343;SDS011;2694;48.950;8.970;2023-02-07T10:29:46;15.13;;;7.30;;
5343;SDS011;2694;48.950;8.970;2023-02-07T10:32:18;16.35;;;8.15;;
5343;SDS011;2694;48.950;8.970;2023-02-07T10:34:48;15.15;;;7.57;;
5343;SDS011;2694;48.950;8.970;2023-02-07T10:37:21;14.00;;;7.80;;
5343;SDS011;2694;48.950;8.970;2023-02-07T10:39:56;14.88;;;8.07;;
5343;SDS011;2694;48.950;8.970;2023-02-07T10:42:26;17.13;;;7.78;;
5343;SDS011;2694;48.950;8.970;2023-02-07T10:44:55;11.82;;;7.10;;
5343;SDS011;2694;48.950;8.970;2023-02-07T10:47:22;14.70;;;7.70;;
5343;SDS011;2694;48.950;8.970;2023-02-07T10:49:50;15.40;;;7.05;;
5343;SDS011;2694;48.950;8.970;2023-02-07T10:52:26;15.25;;;7.68;;
5343;SDS011;2694;48.950;8.970;2023-02-07T10:54:58;12.10;;;7.50;;
5343;SDS011;2694;48.950;8.970;2023-02-07T10:57:26;12.85;;;7.32;;
5343;SDS011;2694;48.950;8.970;2023-02-07T10:59:58;15.80;;;7.97;;
5343;SDS011;2694;48.950;8.970;2023-02-07T11:02:37;13.00;;;7.20;;
5343;SDS011;2694;48.950;8.970;2023-02-07T11:08:05;16.17;;;7.47;;
5343;SDS011;2694;48.950;8.970;2023-02-07T11:10:43;14.90;;;7.82;;
5343;SDS011;2694;48.950;8.970;2023-02-07T11:13:11;14.05;;;8.10;;
5343;SDS011;2694;48.950;8.970;2023-02-07T11:15:44;12.70;;;7.88;;
5343;SDS011;2694;48.950;8.970;2023-02-07T11:18:33;14.27;;;7.70;;
5343;SDS011;2694;48.950;8.970;2023-02-07T11:21:05;14.00;;;8.35;;
5343;SDS011;2694;48.950;8.970;2023-02-07T11:23:45;15.90;;;7.40;;
5343;SDS011;2694;48.950;8.970;2023-02-07T11:26:13;13.02;;;7.95;;
5343;SDS011;2694;48.950;8.970;2023-02-07T11:28:42;13.65;;;7.70;;
5343;SDS011;2694;48.950;8.970;2023-02-07T11:31:12;13.43;;;8.02;;
5343;SDS011;2694;48.950;8.970;2023-02-07T11:33:43;14.60;;;7.87;;
5343;SDS011;2694;48.950;8.970;2023-02-07T11:36:11;12.20;;;7.40;;
5343;SDS011;2694;48.950;8.970;2023-02-07T11:38:53;15.07;;;8.25;;
5343;SDS011;2694;48.950;8.970;2023-02-07T11:41:21;13.35;;;8.00;;
5343;SDS011;2694;48.950;8.970;2023-02-07T11:43:54;14.57;;;7.93;;
5343;SDS011;2694;48.950;8.970;2023-02-07T11:46:23;16.38;;;7.95;;
5343;SDS011;2694;48.950;8.970;2023-02-07T11:48:58;13.50;;;7.75;;
5343;SDS011;2694;48.950;8.970;2023-02-07T11:51:25;15.95;;;7.68;;
5343;SDS011;2694;48.950;8.970;2023-02-07T11:53:58;16.25;;;7.80;;
5343;SDS011;2694;48.950;8.970;2023-02-07T11:56:28;12.25;;;7.35;;
5343;SDS011;2694;48.950;8.970;2023-02-07T11:58:59;11.30;;;6.93;;
5343;SDS011;2694;48.950;8.970;2023-02-07T12:01:31;12.27;;;7.57;;
5343;SDS011;2694;48.950;8.970;2023-02-07T12:04:02;13.52;;;7.53;;
5343;SDS011;2694;48.950;8.970;2023-02-07T12:06:37;11.93;;;7.50;;
5343;SDS011;2694;48.950;8.970;2023-02-07T12:09:15;13.02;;;7.90;;
5343;SDS011;2694;48.950;8.970;2023-02-07T12:11:48;13.73;;;7.50;;
5343;SDS011;2694;48.950;8.970;2023-02-07T12:14:18;15.38;;;7.30;;
5343;SDS011;2694;48.950;8.970;2023-02-07T12:16:52;11.18;;;7.07;;
5343;SDS011;2694;48.950;8.970;2023-02-07T12:19:21;14.57;;;7.60;;
5343;SDS011;2694;48.950;8.970;2023-02-07T12:21:55;19.17;;;8.40;;
5343;SDS011;2694;48.950;8.970;2023-02-07T12:24:28;12.82;;;7.45;;
5343;SDS011;2694;48.950;8.970;2023-02-07T12:27:00;13.10;;;8.18;;
5343;SDS011;2694;48.950;8.970;2023-02-07T12:29:34;13.77;;;7.35;;
5343;SDS011;2694;48.950;8.970;2023-02-07T12:32:17;14.40;;;7.50;;
5343;SDS011;2694;48.950;8.970;2023-02-07T12:34:51;15.85;;;8.13;;
5343;SDS011;2694;48.950;8.970;2023-02-07T12:37:24;17.88;;;7.57;;
5343;SDS011;2694;48.950;8.970;2023-02-07T12:39:57;15.18;;;8.18;;
5343;SDS011;2694;48.950;8.970;2023-02-07T12:42:32;11.68;;;7.18;;
5343;SDS011;2694;48.950;8.970;2023-02-07T12:45:04;13.80;;;8.03;;
5343;SDS011;2694;48.950;8.970;2023-02-07T12:47:38;15.38;;;8.30;;
5343;SDS011;2694;48.950;8.970;2023-02-07T12:50:20;11.80;;;7.85;;
5343;SDS011;2694;48.950;8.970;2023-02-07T12:53:00;11.67;;;7.00;;
5343;SDS011;2694;48.950;8.970;2023-02-07T12:55:39;18.53;;;8.10;;
5343;SDS011;2694;48.950;8.970;2023-02-07T12:58:22;16.13;;;8.25;;
5343;SDS011;2694;48.950;8.970;2023-02-07T13:00:57;15.90;;;7.85;;
5343;SDS011;2694;48.950;8.970;2023-02-07T13:03:33;12.18;;;7.05;;
5343;SDS011;2694;48.950;8.970;2023-02-07T13:06:13;12.05;;;7.50;;
5343;SDS011;2694;48.950;8.970;2023-02-07T13:08:49;11.32;;;6.45;;
5343;SDS011;2694;48.950;8.970;2023-02-07T13:11:28;10.93;;;7.30;;
5343;SDS011;2694;48.950;8.970;2023-02-07T13:14:10;12.50;;;6.80;;
5343;SDS011;2694;48.950;8.970;2023-02-07T13:16:47;13.65;;;6.80;;
5343;SDS011;2694;48.950;8.970;2023-02-07T13:19:23;14.38;;;7.75;;
5343;SDS011;2694;48.950;8.970;2023-02-07T13:21:57;14.20;;;7.35;;
5343;SDS011;2694;48.950;8.970;2023-02-07T13:24:31;14.77;;;7.30;;
5343;SDS011;2694;48.950;8.970;2023-02-07T13:27:01;17.75;;;8.40;;
5343;SDS011;2694;48.950;8.970;2023-02-07T13:29:31;9.75;;;6.88;;
5343;SDS011;2694;48.950;8.970;2023-02-07T13:32:00;12.63;;;7.00;;
5343;SDS011;2694;48.950;8.970;2023-02-07T13:34:39;11.73;;;6.78;;
5343;SDS011;2694;48.950;8.970;2023-02-07T13:37:10;12.70;;;6.30;;
5343;SDS011;2694;48.950;8.970;2023-02-07T13:39:41;11.32;;;6.82;;
5343;SDS011;2694;48.950;8.970;2023-02-07T13:42:20;13.80;;;6.50;;
5343;SDS011;2694;48.950;8.970;2023-02-07T13:44:53;10.48;;;6.20;;
5343;SDS011;2694;48.950;8.970;2023-02-07T13:47:29;11.97;;;6.57;;
5343;SDS011;2694;48.950;8.970;2023-02-07T13:50:10;11.32;;;6.28;;
5343;SDS011;2694;48.950;8.970;2023-02-07T13:52:46;8.63;;;5.43;;
5343;SDS011;2694;48.950;8.970;2023-02-07T13:55:21;10.73;;;6.00;;
5343;SDS011;2694;48.950;8.970;2023-02-07T13:57:57;12.43;;;6.00;;
5343;SDS011;2694;48.950;8.970;2023-02-07T14:00:58;11.07;;;6.38;;
5343;SDS011;2694;48.950;8.970;2023-02-07T14:03:34;11.13;;;5.50;;
5343;SDS011;2694;48.950;8.970;2023-02-07T14:08:56;10.55;;;5.18;;
5343;SDS011;2694;48.950;8.970;2023-02-07T14:11:30;8.27;;;5.50;;
5343;SDS011;2694;48.950;8.970;2023-02-07T14:14:05;12.30;;;5.78;;
5343;SDS011;2694;48.950;8.970;2023-02-07T14:16:48;11.30;;;6.00;;
5343;SDS011;2694;48.950;8.970;2023-02-07T14:22:20;14.05;;;6.10;;
5343;SDS011;2694;48.950;8.970;2023-02-07T14:24:50;10.82;;;5.40;;
5343;SDS011;2694;48.950;8.970;2023-02-07T14:36:37;10.60;;;4.90;;
5343;SDS011;2694;48.950;8.970;2023-02-07T14:39:05;10.82;;;5.55;;
5343;SDS011;2694;48.950;8.970;2023-02-07T14:41:53;7.82;;;4.70;;
5343;SDS011;2694;48.950;8.970;2023-02-07T14:44:31;10.00;;;5.60;;
5343;SDS011;2694;48.950;8.970;2023-02-07T14:47:03;10.48;;;4.97;;
5343;SDS011;2694;48.950;8.970;2023-02-07T14:49:34;7.85;;;4.78;;
5343;SDS011;2694;48.950;8.970;2023-02-07T14:52:03;9.38;;;4.60;;
5343;SDS011;2694;48.950;8.970;2023-02-07T14:54:34;10.05;;;4.70;;
5343;SDS011;2694;48.950;8.970;2023-02-07T14:57:12;9.13;;;4.57;;
5343;SDS011;2694;48.950;8.970;2023-02-07T14:59:52;8.32;;;5.15;;
5343;SDS011;2694;48.950;8.970;2023-02-07T15:02:29;8.10;;;4.50;;
5343;SDS011;2694;48.950;8.970;2023-02-07T15:05:07;11.05;;;4.78;;
5343;SDS011;2694;48.950;8.970;2023-02-07T15:07:41;8.48;;;4.72;;
5343;SDS011;2694;48.950;8.970;2023-02-07T15:10:14;10.73;;;4.90;;
5343;SDS011;2694;48.950;8.970;2023-02-07T15:12:42;9.97;;;4.70;;
5343;SDS011;2694;48.950;8.970;2023-02-07T15:15:15;9.13;;;4.32;;
5343;SDS011;2694;48.950;8.970;2023-02-07T15:17:45;16.77;;;7.47;;
5343;SDS011;2694;48.950;8.970;2023-02-07T15:20:14;10.23;;;5.25;;
5343;SDS011;2694;48.950;8.970;2023-02-07T15:22:45;11.25;;;5.35;;
5343;SDS011;2694;48.950;8.970;2023-02-07T15:25:15;11.35;;;4.85;;
5343;SDS011;2694;48.950;8.970;2023-02-07T15:27:42;8.80;;;4.00;;
5343;SDS011;2694;48.950;8.970;2023-02-07T15:30:24;8.93;;;4.50;;
5343;SDS011;2694;48.950;8.970;2023-02-07T15:32:52;7.97;;;4.47;;
5343;SDS011;2694;48.950;8.970;2023-02-07T15:35:20;7.68;;;3.90;;
5343;SDS011;2694;48.950;8.970;2023-02-07T15:37:50;13.32;;;4.40;;
5343;SDS011;2694;48.950;8.970;2023-02-07T15:40:19;10.63;;;4.75;;
5343;SDS011;2694;48.950;8.970;2023-02-07T15:42:51;8.73;;;4.18;;
5343;SDS011;2694;48.950;8.970;2023-02-07T15:45:21;11.10;;;4.60;;
5343;SDS011;2694;48.950;8.970;2023-02-07T15:47:57;7.25;;;4.00;;